Time;durP1;ratioP1;P1;durP2;ratioP2;P2;SDS_P1;SDS_P2;PMS_P1;PMS_P2;Temp;Humidity;BMP_temperature;BMP_pressure;BME280_temperature;BME280_humidity;BME280_pressure;Samples;Min_cycle;Max_cycle;Signal;HPM_P1;HPM_P2
2022/09/02 04:45:58;;;;;;;2.10;1.10;;;;;;;15.20;55.98;100446.63;6642136;26;20063;-89
2022/09/02 04:52:46;;;;;;;3.00;1.05;;;;;;;15.29;56.88;100436.28;6645559;26;20063;-88
2022/09/02 05:03:13;;;;;;;3.12;1.00;;;;;;;15.44;54.79;100445.91;6637766;26;20074;-91
2022/09/02 05:51:59;;;;;;;1.67;1.20;;;;;;;16.59;52.33;100455.66;6635543;26;33967;-88
2022/09/02 05:55:05;;;;;;;1.48;1.08;;;;;;;16.69;51.63;100450.47;6634249;26;33854;-88
2022/09/02 05:58:09;;;;;;;3.67;1.35;;;;;;;16.77;51.73;100445.44;6614620;26;32615;-88
2022/09/02 06:01:15;;;;;;;2.90;1.20;;;;;;;16.84;53.10;100448.47;6633577;26;33636;-88
2022/09/02 06:04:19;;;;;;;1.35;1.23;;;;;;;17.01;51.95;100455.25;6634474;26;34170;-86
2022/09/02 06:07:25;;;;;;;2.25;1.10;;;;;;;17.14;51.49;100443.66;6634411;26;34485;-86
2022/09/02 06:10:28;;;;;;;1.40;1.20;;;;;;;17.43;50.31;100449.44;6630322;26;33849;-86
2022/09/02 06:13:34;;;;;;;2.62;1.08;;;;;;;17.60;49.74;100449.94;6632711;26;35279;-86
2022/09/02 06:16:39;;;;;;;3.00;1.17;;;;;;;17.55;50.12;100452.97;6633605;26;34668;-86
2022/09/02 06:19:43;;;;;;;2.40;1.15;;;;;;;17.70;50.67;100455.44;6634187;26;33948;-87
2022/09/02 06:22:47;;;;;;;4.18;1.20;;;;;;;18.13;49.35;100456.53;6613548;26;34062;-87
2022/09/02 06:25:50;;;;;;;1.92;1.40;;;;;;;18.20;47.98;100457.75;6631997;26;35199;-86
2022/09/02 06:28:53;;;;;;;3.75;1.20;;;;;;;18.20;48.57;100456.91;6613180;26;32550;-86
2022/09/02 06:31:57;;;;;;;4.45;1.50;;;;;;;18.57;47.84;100460.13;6631935;26;33959;-87
2022/09/02 06:35:00;;;;;;;2.97;1.30;;;;;;;18.63;47.48;100461.47;6633622;26;34928;-86
2022/09/02 06:38:05;;;;;;;2.90;1.15;;;;;;;18.79;47.33;100463.72;6612456;26;32390;-87
2022/09/02 06:41:10;;;;;;;2.33;1.23;;;;;;;18.94;46.26;100453.53;6633196;26;33936;-86
2022/09/02 06:44:15;;;;;;;4.00;1.30;;;;;;;19.29;46.00;100462.28;6616320;26;33749;-86
2022/09/02 06:47:18;;;;;;;6.80;1.30;;;;;;;19.13;46.99;100466.28;6637299;26;33819;-86
2022/09/02 06:50:21;;;;;;;5.47;1.17;;;;;;;19.02;46.90;100460.94;6632948;26;33648;-87
2022/09/02 06:53:24;;;;;;;5.00;1.15;;;;;;;19.10;47.19;100466.56;6632036;26;34404;-86
2022/09/02 06:56:31;;;;;;;1.08;0.93;;;;;;;18.85;46.50;100465.91;6633253;26;33923;-88
2022/09/02 06:59:35;;;;;;;2.00;1.17;;;;;;;18.89;46.39;100469.19;6634096;26;34025;-87
2022/09/02 07:02:38;;;;;;;6.53;1.10;;;;;;;18.98;46.61;100465.72;6614097;26;33810;-87
2022/09/02 07:05:42;;;;;;;2.40;1.00;;;;;;;19.00;46.64;100460.19;6632941;26;33596;-87
2022/09/02 07:08:45;;;;;;;1.50;1.10;;;;;;;18.93;47.42;100465.25;6632635;26;33728;-88
2022/09/02 07:11:49;;;;;;;2.67;1.25;;;;;;;18.90;46.97;100461.97;6633963;26;34521;-87
2022/09/02 07:14:53;;;;;;;2.80;1.27;;;;;;;18.98;47.17;100468.41;6612856;26;33426;-90
2022/09/02 07:17:59;;;;;;;2.30;1.10;;;;;;;18.92;46.63;100460.87;6614305;26;33332;-91
2022/09/02 07:21:03;;;;;;;3.08;1.12;;;;;;;18.83;47.76;100461.63;6613118;26;33225;-90
2022/09/02 08:36:47;;;;;;;5.62;1.50;;;;;;;20.90;43.92;100462.59;6568464;26;33390;-89
2022/09/02 08:40:05;;;;;;;2.60;1.65;;;;;;;21.12;42.97;100458.75;6606950;26;34523;-90
2022/09/02 09:17:22;;;;;;;2.85;1.60;;;;;;;22.29;41.84;100450.44;6615886;26;20036;-90
2022/09/02 09:39:41;;;;;;;3.00;1.87;;;;;;;23.89;39.20;100435.34;6570822;26;20072;-89
2022/09/02 11:46:29;;;;;;;3.75;2.05;;;;;;;24.29;38.86;100385.00;6607107;26;20060;-88
2022/09/02 11:50:08;;;;;;;4.12;2.10;;;;;;;24.43;36.79;100375.38;6588122;27;32800;-87
2022/09/02 12:00:54;;;;;;;4.78;1.70;;;;;;;25.20;36.65;100364.34;6583308;26;20393;-88
2022/09/02 12:03:59;;;;;;;5.20;2.22;;;;;;;24.91;35.75;100363.91;6583584;27;34013;-89
2022/09/02 12:22:38;;;;;;;3.20;2.20;;;;;;;23.67;37.12;100365.34;6610752;26;20039;-90
2022/09/02 13:43:13;;;;;;;3.60;2.30;;;;;;;24.81;37.75;100317.97;6609465;26;20059;-88
2022/09/02 13:49:56;;;;;;;7.05;2.12;;;;;;;24.37;37.83;100316.41;6603708;26;21366;-88
2022/09/02 13:56:37;;;;;;;5.53;2.50;;;;;;;23.11;40.42;100314.28;6601547;26;20052;-89
2022/09/02 13:59:50;;;;;;;3.45;2.58;;;;;;;22.75;40.86;100298.16;6603792;26;34580;-89
2022/09/02 14:03:02;;;;;;;7.93;2.45;;;;;;;23.06;40.37;100302.25;6587668;27;33101;-87
2022/09/02 14:06:10;;;;;;;2.60;2.03;;;;;;;22.95;40.25;100301.53;6608116;27;32486;-88
2022/09/02 14:09:30;;;;;;;8.40;2.60;;;;;;;22.82;41.51;100304.63;6609114;27;34834;-88
2022/09/02 14:12:38;;;;;;;3.37;2.28;;;;;;;22.78;41.16;100303.25;6610286;27;34478;-88
2022/09/02 14:15:42;;;;;;;3.25;2.17;;;;;;;22.83;40.43;100297.38;6610556;27;32222;-89
2022/09/02 14:19:13;;;;;;;5.05;2.35;;;;;;;22.74;41.35;100296.47;6619383;27;34373;-89
2022/09/02 14:22:32;;;;;;;3.03;2.55;;;;;;;22.79;40.79;100299.56;6587012;27;32172;-92
2022/09/02 14:25:49;;;;;;;3.50;2.35;;;;;;;22.87;40.90;100304.16;6602719;26;34763;-89
2022/09/02 14:29:00;;;;;;;3.03;2.72;;;;;;;22.73;42.03;100309.13;6579836;27;33918;-89
2022/09/02 14:32:12;;;;;;;3.20;2.45;;;;;;;23.05;41.62;100308.66;6561180;27;33634;-88
2022/09/02 14:35:23;;;;;;;2.80;2.60;;;;;;;22.82;41.42;100310.03;6582090;26;33828;-88
2022/09/02 14:38:30;;;;;;;3.53;2.05;;;;;;;22.39;42.20;100309.00;6588065;27;33488;-88
2022/09/02 14:41:37;;;;;;;2.87;2.40;;;;;;;22.00;43.25;100311.00;6603739;26;33716;-88
2022/09/02 14:44:45;;;;;;;3.65;2.62;;;;;;;22.08;43.05;100307.56;6608375;26;34632;-90
2022/09/02 15:07:01;;;;;;;11.30;2.80;;;;;;;23.03;39.82;100311.50;6576079;26;20319;-89
